Time;durP1;ratioP1;P1;durP2;ratioP2;P2;SDS_P1;SDS_P2;PMS_P1;PMS_P2;Temp;Humidity;BMP_temperature;BMP_pressure;BME280_temperature;BME280_humidity;BME280_pressure;Samples;Min_cycle;Max_cycle;Signal;HPM_P1;HPM_P2
2022/08/23 00:01:12;;;;;;;1.50;1.25;;;16.30;99.90;;;;;;5014194;28;20040;-73
2022/08/23 00:03:39;;;;;;;1.63;1.15;;;16.30;99.90;;;;;;5013853;28;20631;-73
2022/08/23 00:06:05;;;;;;;1.45;1.25;;;16.30;99.90;;;;;;5014209;28;20062;-73
2022/08/23 00:08:31;;;;;;;1.23;1.13;;;16.30;99.90;;;;;;5013349;28;20018;-73
2022/08/23 00:10:57;;;;;;;2.15;1.10;;;16.30;99.90;;;;;;5014048;28;20471;-73
2022/08/23 00:13:23;;;;;;;1.00;0.90;;;16.30;99.90;;;;;;5013456;28;20356;-74
2022/08/23 00:15:49;;;;;;;1.35;1.05;;;16.30;99.90;;;;;;5013637;28;20124;-73
2022/08/23 00:18:15;;;;;;;1.90;1.40;;;16.30;99.90;;;;;;5013910;28;20101;-73
2022/08/23 00:20:41;;;;;;;1.10;1.00;;;16.30;99.90;;;;;;5013505;28;20056;-73
2022/08/23 00:23:07;;;;;;;0.98;0.90;;;16.30;99.90;;;;;;5013845;28;20033;-73
2022/08/23 00:25:33;;;;;;;1.98;0.93;;;16.30;99.90;;;;;;5013403;28;20034;-73
2022/08/23 00:27:58;;;;;;;1.08;1.00;;;16.20;99.90;;;;;;5013733;28;20036;-74
2022/08/23 00:30:24;;;;;;;0.98;0.85;;;16.20;99.90;;;;;;5013199;28;20030;-73
2022/08/23 00:32:50;;;;;;;2.40;0.70;;;16.20;99.90;;;;;;5013573;28;20127;-73
2022/08/23 00:35:16;;;;;;;1.10;0.80;;;16.20;99.90;;;;;;5013809;28;20367;-73
2022/08/23 00:37:43;;;;;;;0.90;0.85;;;16.20;99.90;;;;;;5012976;28;20053;-73
2022/08/23 00:40:12;;;;;;;0.85;0.70;;;16.20;99.90;;;;;;5013355;28;20076;-73
2022/08/23 00:48:26;;;;;;;1.00;0.90;;;16.20;99.90;;;;;;4993146;28;20057;-73
2022/08/23 00:50:59;;;;;;;1.17;1.00;;;16.20;99.90;;;;;;4976373;28;20475;-73
2022/08/23 00:53:31;;;;;;;1.20;0.60;;;16.20;99.90;;;;;;4993079;28;20061;-74
2022/08/23 00:56:00;;;;;;;1.02;0.70;;;16.10;99.90;;;;;;4993279;28;20440;-73
2022/08/23 00:58:26;;;;;;;0.50;0.50;;;16.10;99.90;;;;;;4993103;28;20022;-74
2022/08/23 01:00:54;;;;;;;0.98;0.80;;;16.20;99.90;;;;;;4993628;28;20034;-73
2022/08/23 01:03:24;;;;;;;0.70;0.70;;;16.20;99.90;;;;;;4993318;28;20027;-73
2022/08/23 01:05:52;;;;;;;0.93;0.70;;;16.20;99.90;;;;;;4992631;28;20057;-73
2022/08/23 01:08:22;;;;;;;0.77;0.73;;;16.20;99.90;;;;;;4993403;28;20036;-73
2022/08/23 01:10:59;;;;;;;0.68;0.65;;;16.10;99.90;;;;;;4992892;28;20419;-73
2022/08/23 01:13:31;;;;;;;0.60;0.60;;;16.10;99.90;;;;;;4993132;28;20030;-74
2022/08/23 01:16:06;;;;;;;1.83;0.90;;;16.10;99.90;;;;;;4995392;28;20169;-73
2022/08/23 01:18:33;;;;;;;0.60;0.60;;;16.10;99.90;;;;;;4992666;28;20490;-73
2022/08/23 01:21:13;;;;;;;0.50;0.50;;;16.10;99.90;;;;;;4993001;28;20050;-73
2022/08/23 01:23:46;;;;;;;0.70;0.60;;;16.10;99.90;;;;;;4993093;28;20033;-73
2022/08/23 01:26:16;;;;;;;0.50;0.50;;;16.10;99.90;;;;;;4993256;28;20045;-73
2022/08/23 01:28:42;;;;;;;0.63;0.63;;;16.10;99.90;;;;;;4992376;28;20444;-73
2022/08/23 01:31:09;;;;;;;0.50;0.50;;;16.10;99.90;;;;;;4993092;28;20415;-73
2022/08/23 01:33:39;;;;;;;0.60;0.60;;;16.10;99.90;;;;;;4992393;28;20129;-73
2022/08/23 01:36:07;;;;;;;0.70;0.60;;;16.10;99.90;;;;;;4993189;28;20038;-72
2022/08/23 01:38:33;;;;;;;0.60;0.60;;;16.00;99.90;;;;;;4992509;28;20263;-73
2022/08/23 01:40:59;;;;;;;0.63;0.63;;;16.10;99.90;;;;;;4993027;28;20027;-73
2022/08/23 01:43:25;;;;;;;0.88;0.70;;;16.00;99.90;;;;;;4992883;28;20066;-73
2022/08/23 01:45:51;;;;;;;0.60;0.60;;;16.00;99.90;;;;;;4992191;28;20026;-73
2022/08/23 01:48:18;;;;;;;2.58;0.70;;;16.00;99.90;;;;;;4992921;28;20031;-73
2022/08/23 01:50:45;;;;;;;0.70;0.70;;;16.00;99.90;;;;;;4992695;28;20031;-73
2022/08/23 01:53:11;;;;;;;0.77;0.57;;;16.00;99.90;;;;;;4992903;28;20026;-73
2022/08/23 01:55:39;;;;;;;0.93;0.88;;;16.00;99.90;;;;;;4992227;28;20018;-73
2022/08/23 01:58:06;;;;;;;0.70;0.70;;;16.00;99.90;;;;;;4994874;28;20030;-73
2022/08/23 02:00:35;;;;;;;1.75;1.02;;;16.00;99.90;;;;;;4992301;28;20034;-73
2022/08/23 02:03:01;;;;;;;1.75;0.63;;;16.00;99.90;;;;;;4992809;28;20030;-73
2022/08/23 02:05:28;;;;;;;0.73;0.73;;;16.00;99.90;;;;;;4992840;28;20058;-73
2022/08/23 02:07:54;;;;;;;1.13;0.82;;;16.00;99.90;;;;;;4992065;28;20498;-73
2022/08/23 02:10:20;;;;;;;0.90;0.80;;;16.00;99.90;;;;;;4992533;28;20038;-73
2022/08/23 02:12:46;;;;;;;0.65;0.60;;;16.00;99.90;;;;;;4992480;28;20031;-72
2022/08/23 02:15:13;;;;;;;0.60;0.60;;;16.00;99.90;;;;;;4993383;28;20030;-72
2022/08/23 02:17:39;;;;;;;1.00;0.88;;;16.00;99.90;;;;;;4993061;28;20045;-73
2022/08/23 02:20:05;;;;;;;1.00;0.70;;;16.00;99.90;;;;;;4996222;28;20046;-72
2022/08/23 02:22:32;;;;;;;0.60;0.60;;;16.00;99.90;;;;;;4996212;28;20056;-73
2022/08/23 02:24:58;;;;;;;2.05;0.80;;;16.00;99.90;;;;;;4996370;28;20110;-72
2022/08/23 02:27:24;;;;;;;2.20;0.70;;;16.00;99.90;;;;;;4996741;28;20069;-72
2022/08/23 02:29:49;;;;;;;1.20;0.80;;;16.00;99.90;;;;;;4996260;28;20026;-72
2022/08/23 02:32:16;;;;;;;0.80;0.80;;;16.00;99.90;;;;;;4995999;28;20026;-72
2022/08/23 02:34:43;;;;;;;1.05;0.70;;;16.00;99.90;;;;;;4995780;28;20038;-72
2022/08/23 02:37:11;;;;;;;0.95;0.90;;;16.00;99.90;;;;;;4996133;28;20034;-72
2022/08/23 02:39:37;;;;;;;0.98;0.85;;;16.00;99.90;;;;;;4995693;28;20029;-73
2022/08/23 02:42:04;;;;;;;0.77;0.75;;;16.00;99.90;;;;;;4996292;28;20089;-72
2022/08/23 02:44:33;;;;;;;1.02;0.80;;;16.00;99.90;;;;;;4996262;28;20037;-72
2022/08/23 02:47:00;;;;;;;1.10;1.00;;;16.00;99.90;;;;;;4995863;28;20031;-74
2022/08/23 02:49:26;;;;;;;0.70;0.70;;;16.00;99.90;;;;;;4996113;28;20034;-73
2022/08/23 02:51:52;;;;;;;1.10;1.00;;;16.00;99.90;;;;;;4995427;28;20035;-74
2022/08/23 02:54:18;;;;;;;1.70;1.00;;;16.00;99.90;;;;;;4996060;28;20041;-74
2022/08/23 02:56:44;;;;;;;2.45;1.23;;;16.00;99.90;;;;;;4995337;28;20041;-74
2022/08/23 02:59:09;;;;;;;1.10;0.90;;;16.00;99.90;;;;;;4995758;28;20034;-73
2022/08/23 03:01:37;;;;;;;1.15;1.00;;;16.00;99.90;;;;;;4995545;28;20029;-75
2022/08/23 03:04:06;;;;;;;1.02;0.90;;;16.00;99.90;;;;;;4995559;28;20096;-74
2022/08/23 03:06:32;;;;;;;1.60;1.27;;;16.00;99.90;;;;;;4995728;28;20041;-72
2022/08/23 03:08:57;;;;;;;1.05;0.95;;;16.00;99.90;;;;;;4995011;28;20026;-73
2022/08/23 03:11:24;;;;;;;1.52;1.20;;;16.00;99.90;;;;;;4995442;28;20487;-73
2022/08/23 03:13:51;;;;;;;2.10;1.25;;;16.00;99.90;;;;;;4995158;28;20031;-73
2022/08/23 03:16:17;;;;;;;1.38;1.10;;;16.00;99.90;;;;;;4995468;28;20092;-74
2022/08/23 03:18:44;;;;;;;3.30;1.10;;;16.00;99.90;;;;;;4994731;28;20059;-74
2022/08/23 03:21:10;;;;;;;2.22;1.52;;;16.00;99.90;;;;;;4998320;28;20095;-74
2022/08/23 03:23:37;;;;;;;4.63;1.30;;;16.00;99.90;;;;;;4995083;28;20383;-74
2022/08/23 03:26:05;;;;;;;1.70;1.33;;;16.00;99.90;;;;;;4995040;28;20571;-74
2022/08/23 03:28:32;;;;;;;1.23;1.10;;;16.00;99.90;;;;;;4995257;28;20390;-74
2022/08/23 03:30:58;;;;;;;2.97;1.30;;;16.00;99.90;;;;;;4994354;28;20033;-72
2022/08/23 03:33:24;;;;;;;1.80;1.38;;;16.00;99.90;;;;;;4995354;28;20438;-71
2022/08/23 03:35:49;;;;;;;2.28;1.42;;;16.00;99.90;;;;;;4994710;28;20045;-72
2022/08/23 03:38:16;;;;;;;1.50;1.40;;;16.00;99.90;;;;;;4995321;28;20025;-73
2022/08/23 03:40:42;;;;;;;1.20;1.10;;;16.00;99.90;;;;;;4994426;28;20084;-74
2022/08/23 03:43:08;;;;;;;2.38;1.10;;;16.10;99.90;;;;;;5000308;28;20030;-75
2022/08/23 03:45:34;;;;;;;2.75;1.70;;;16.10;99.90;;;;;;5004299;28;20033;-75
2022/08/23 03:48:00;;;;;;;1.30;1.20;;;16.10;99.90;;;;;;5003424;28;20422;-75
2022/08/23 03:50:25;;;;;;;1.65;1.17;;;16.20;99.90;;;;;;5005313;28;20033;-75
2022/08/23 03:52:51;;;;;;;2.75;1.42;;;16.30;99.90;;;;;;5002204;28;20122;-75
2022/08/23 03:55:17;;;;;;;2.05;1.30;;;16.30;99.90;;;;;;5004095;28;20025;-75
2022/08/23 03:57:42;;;;;;;1.58;1.35;;;16.30;99.90;;;;;;5004662;28;20328;-74
2022/08/23 04:00:11;;;;;;;1.17;1.08;;;16.40;99.90;;;;;;5005001;28;20509;-75
2022/08/23 04:02:36;;;;;;;1.50;1.40;;;16.40;99.90;;;;;;4986692;28;20029;-75
2022/08/23 04:05:04;;;;;;;1.27;1.17;;;16.50;99.90;;;;;;5000255;28;20054;-75
2022/08/23 04:07:30;;;;;;;1.60;0.98;;;16.40;99.90;;;;;;5004850;28;20108;-75
2022/08/23 04:09:56;;;;;;;1.33;1.23;;;16.50;99.90;;;;;;5001614;28;20152;-76
2022/08/23 04:12:22;;;;;;;1.30;1.20;;;16.50;99.90;;;;;;5013132;28;20487;-76
2022/08/23 04:14:48;;;;;;;1.92;1.55;;;16.50;99.90;;;;;;5013681;28;20022;-76
2022/08/23 04:17:14;;;;;;;1.48;1.00;;;16.60;99.90;;;;;;5014135;28;20034;-75
2022/08/23 04:19:41;;;;;;;1.63;1.20;;;16.60;99.90;;;;;;5013958;28;20475;-75
2022/08/23 04:22:14;;;;;;;1.52;1.42;;;16.60;99.90;;;;;;5013819;28;20064;-75
2022/08/23 04:24:42;;;;;;;1.42;1.30;;;16.60;99.90;;;;;;5014236;28;20517;-76
2022/08/23 04:27:08;;;;;;;1.38;1.27;;;16.70;99.90;;;;;;5013821;28;20076;-75
2022/08/23 04:29:34;;;;;;;1.48;1.30;;;16.60;99.90;;;;;;5013790;28;20038;-74
2022/08/23 04:32:00;;;;;;;1.17;1.08;;;16.70;99.90;;;;;;5013020;28;20434;-75
2022/08/23 04:34:26;;;;;;;1.10;1.00;;;16.70;99.90;;;;;;5013724;28;20033;-75
2022/08/23 04:36:52;;;;;;;4.30;1.48;;;16.70;99.90;;;;;;5003742;28;20050;-74
2022/08/23 04:39:18;;;;;;;1.33;1.23;;;16.80;99.90;;;;;;5000917;28;20030;-75
2022/08/23 04:44:28;;;;;;;1.30;1.17;;;16.80;99.90;;;;;;5011305;28;20053;-75
2022/08/23 04:46:53;;;;;;;1.67;1.40;;;16.80;99.90;;;;;;5012576;28;20471;-74
2022/08/23 04:49:21;;;;;;;1.20;1.10;;;16.80;99.90;;;;;;5013871;28;20042;-74
2022/08/23 04:51:47;;;;;;;1.73;1.60;;;16.70;99.90;;;;;;5012278;28;20083;-74
2022/08/23 04:54:13;;;;;;;1.75;1.13;;;16.70;99.90;;;;;;5003946;28;20065;-75
2022/08/23 04:56:39;;;;;;;1.27;1.17;;;16.70;99.90;;;;;;5013092;28;20069;-75
2022/08/23 04:59:05;;;;;;;1.65;1.45;;;16.70;99.90;;;;;;5010163;28;20041;-75
2022/08/23 05:01:30;;;;;;;1.55;1.40;;;16.70;99.90;;;;;;4993588;28;20058;-75
2022/08/23 05:03:56;;;;;;;1.20;1.10;;;16.70;99.90;;;;;;4992979;28;20061;-74
2022/08/23 05:06:23;;;;;;;1.42;1.30;;;16.70;99.90;;;;;;4993254;28;20045;-75
2022/08/23 05:08:48;;;;;;;1.20;1.10;;;16.70;99.90;;;;;;4992875;28;20033;-74
2022/08/23 05:11:14;;;;;;;1.25;1.15;;;16.70;99.90;;;;;;4993001;28;20030;-75
2022/08/23 05:13:40;;;;;;;1.20;1.10;;;16.60;99.90;;;;;;4993447;28;20093;-75
2022/08/23 05:16:06;;;;;;;1.52;1.42;;;16.70;99.90;;;;;;4993935;28;20835;-75
2022/08/23 05:18:32;;;;;;;1.30;1.20;;;16.70;99.90;;;;;;5012900;28;20038;-74
2022/08/23 05:20:58;;;;;;;1.20;1.10;;;16.70;99.90;;;;;;4994336;28;20060;-74
2022/08/23 05:23:24;;;;;;;1.67;1.48;;;16.70;99.90;;;;;;5003544;28;20398;-75
2022/08/23 05:25:52;;;;;;;2.15;1.40;;;16.70;99.90;;;;;;5002345;28;20026;-74
2022/08/23 05:28:38;;;;;;;1.33;1.23;;;16.70;99.90;;;;;;5002036;28;20032;-74
2022/08/23 05:31:08;;;;;;;2.08;1.60;;;16.70;99.90;;;;;;5001585;28;20026;-75
2022/08/23 05:33:35;;;;;;;2.00;1.50;;;16.70;99.90;;;;;;4992993;28;20444;-75
2022/08/23 05:36:01;;;;;;;4.70;1.52;;;16.70;99.90;;;;;;4992636;28;20045;-75
2022/08/23 05:38:27;;;;;;;2.83;1.73;;;16.80;99.90;;;;;;4993124;28;20065;-74
2022/08/23 05:40:56;;;;;;;2.70;1.98;;;16.80;99.90;;;;;;4992265;28;20058;-74
2022/08/23 05:43:23;;;;;;;1.60;1.50;;;16.80;99.90;;;;;;4992977;28;20487;-75
2022/08/23 05:46:03;;;;;;;2.95;2.08;;;16.80;99.90;;;;;;4992507;28;20050;-73
2022/08/23 05:48:30;;;;;;;2.10;1.73;;;16.80;99.90;;;;;;4997668;28;20084;-72
2022/08/23 05:50:56;;;;;;;2.25;1.80;;;16.80;99.90;;;;;;5011844;28;20067;-72
2022/08/23 05:53:22;;;;;;;2.25;1.67;;;16.80;99.90;;;;;;4999666;28;20034;-71
2022/08/23 05:55:48;;;;;;;2.03;1.70;;;16.80;99.90;;;;;;4998729;28;20026;-74
2022/08/23 05:58:14;;;;;;;2.88;1.90;;;16.70;99.90;;;;;;4999575;28;20042;-73
2022/08/23 06:00:40;;;;;;;1.77;1.67;;;16.70;99.90;;;;;;4999644;28;20099;-73
2022/08/23 06:03:05;;;;;;;1.95;1.73;;;16.70;99.90;;;;;;4998777;28;20477;-72
2022/08/23 06:05:31;;;;;;;3.00;1.90;;;16.70;99.90;;;;;;4999964;28;20109;-72
2022/08/23 06:07:59;;;;;;;3.80;2.08;;;16.70;99.90;;;;;;4999041;28;20026;-73
2022/08/23 06:10:24;;;;;;;2.03;1.70;;;16.70;99.90;;;;;;4999417;28;20547;-72
2022/08/23 06:12:51;;;;;;;2.72;1.98;;;16.60;99.90;;;;;;4999077;28;20118;-72
2022/08/23 06:15:16;;;;;;;2.95;1.75;;;16.60;99.90;;;;;;4999340;28;20065;-73
2022/08/23 06:17:42;;;;;;;2.67;1.60;;;16.60;99.90;;;;;;4999047;28;20034;-72
2022/08/23 06:20:09;;;;;;;1.80;1.70;;;16.60;99.90;;;;;;4998590;28;20062;-73
2022/08/23 06:22:34;;;;;;;2.03;1.48;;;16.60;99.90;;;;;;4999297;28;20068;-72
2022/08/23 06:25:00;;;;;;;1.90;1.70;;;16.60;99.90;;;;;;4998965;28;20058;-73
2022/08/23 06:27:26;;;;;;;2.25;1.60;;;16.50;99.90;;;;;;4999367;28;20026;-72
2022/08/23 06:29:51;;;;;;;2.00;1.80;;;16.60;99.90;;;;;;4998950;28;20056;-73
2022/08/23 06:32:18;;;;;;;2.60;2.17;;;16.50;99.90;;;;;;4998856;28;20078;-73
2022/08/23 06:34:44;;;;;;;2.40;1.77;;;16.50;99.90;;;;;;4999302;28;20034;-72
2022/08/23 06:37:13;;;;;;;4.22;1.90;;;16.60;99.90;;;;;;4998695;28;20038;-73
2022/08/23 06:39:39;;;;;;;2.70;2.17;;;16.60;99.90;;;;;;4999101;28;20080;-73
2022/08/23 06:42:12;;;;;;;1.90;1.70;;;16.60;99.90;;;;;;4998412;28;20372;-73
2022/08/23 06:44:38;;;;;;;1.95;1.80;;;16.60;99.90;;;;;;4999197;28;20080;-73
2022/08/23 06:47:05;;;;;;;2.65;1.75;;;16.60;99.90;;;;;;4998703;28;20044;-73
2022/08/23 06:49:31;;;;;;;2.60;2.08;;;16.60;99.90;;;;;;4999020;28;20109;-73
2022/08/23 06:52:04;;;;;;;3.50;1.75;;;16.70;99.90;;;;;;5014217;28;20033;-74
2022/08/23 06:54:33;;;;;;;2.55;1.98;;;16.60;99.90;;;;;;5018820;28;20424;-73
2022/08/23 06:57:00;;;;;;;1.95;1.75;;;16.60;99.90;;;;;;5018079;28;20025;-73
2022/08/23 06:59:26;;;;;;;1.83;1.65;;;16.60;99.90;;;;;;5018293;28;20498;-72
2022/08/23 07:02:01;;;;;;;1.83;1.63;;;16.70;99.90;;;;;;5018385;28;20030;-73
2022/08/23 07:04:30;;;;;;;2.38;1.90;;;16.70;99.90;;;;;;5015817;28;20037;-72
2022/08/23 07:06:56;;;;;;;2.28;1.80;;;16.70;99.90;;;;;;4997522;28;20057;-72
2022/08/23 07:09:23;;;;;;;2.80;2.05;;;16.70;99.90;;;;;;5015467;28;20105;-72
2022/08/23 07:11:49;;;;;;;2.20;2.00;;;16.80;99.90;;;;;;5015417;28;20029;-72
2022/08/23 07:14:17;;;;;;;2.28;1.70;;;16.80;99.90;;;;;;5014810;28;20032;-73
2022/08/23 07:16:47;;;;;;;1.90;1.63;;;16.80;99.90;;;;;;5015296;28;20033;-73
2022/08/23 07:19:13;;;;;;;1.95;1.80;;;16.90;99.90;;;;;;5014698;28;20216;-73
2022/08/23 07:21:40;;;;;;;1.52;1.35;;;16.90;99.90;;;;;;5015320;28;20199;-73
2022/08/23 07:24:07;;;;;;;1.67;1.58;;;17.00;99.90;;;;;;5014663;28;20060;-74
2022/08/23 07:26:32;;;;;;;2.55;1.50;;;17.00;99.90;;;;;;5014914;28;20034;-73
2022/08/23 07:28:58;;;;;;;1.98;1.48;;;17.20;99.90;;;;;;5014733;28;20080;-74
2022/08/23 07:31:29;;;;;;;2.22;1.58;;;17.20;99.90;;;;;;5014845;28;20021;-73
2022/08/23 07:33:56;;;;;;;;;;;17.20;99.90;;;;;;5014062;28;20025;-74
2022/08/23 07:36:25;;;;;;;1.50;1.30;;;17.30;99.90;;;;;;5012960;28;19917;-73
2022/08/23 07:38:51;;;;;;;1.35;1.25;;;17.30;99.90;;;;;;5014899;28;20026;-73
2022/08/23 07:41:19;;;;;;;2.35;1.55;;;17.30;99.90;;;;;;5014523;28;20108;-73
2022/08/23 07:43:45;;;;;;;1.88;1.48;;;17.40;99.90;;;;;;5014788;28;20037;-73
2022/08/23 07:46:12;;;;;;;1.38;1.20;;;17.70;99.90;;;;;;5014369;28;20440;-73
2022/08/23 07:48:38;;;;;;;0.82;0.75;;;18.50;99.90;;;;;;5014742;28;20463;-73
2022/08/23 07:51:08;;;;;;;0.90;0.68;;;19.00;99.90;;;;;;5014169;28;20382;-73
2022/08/23 07:53:34;;;;;;;0.65;0.65;;;19.10;99.90;;;;;;5014679;28;20026;-73
2022/08/23 07:56:05;;;;;;;0.88;0.80;;;19.00;99.90;;;;;;5013244;28;20030;-73
2022/08/23 07:58:31;;;;;;;0.70;0.70;;;18.90;99.90;;;;;;5014775;28;20108;-74
2022/08/23 08:01:06;;;;;;;0.65;0.60;;;18.80;99.90;;;;;;5014106;28;20114;-75
2022/08/23 08:03:32;;;;;;;1.10;0.82;;;18.90;99.90;;;;;;5014534;28;20033;-73
2022/08/23 08:05:59;;;;;;;0.60;0.60;;;19.10;99.90;;;;;;5013979;28;20037;-74
2022/08/23 08:08:25;;;;;;;0.60;0.60;;;19.00;99.90;;;;;;5014540;28;20018;-73
2022/08/23 08:10:53;;;;;;;0.60;0.60;;;19.00;99.90;;;;;;5014414;28;20080;-73
2022/08/23 08:13:19;;;;;;;1.05;0.70;;;19.40;99.90;;;;;;5013668;28;20053;-72
2022/08/23 08:15:44;;;;;;;0.68;0.68;;;20.40;99.90;;;;;;5013860;28;20084;-73
2022/08/23 08:18:10;;;;;;;0.50;0.50;;;20.40;99.90;;;;;;5013792;28;20527;-73
2022/08/23 08:20:36;;;;;;;0.52;0.52;;;20.30;99.90;;;;;;5014065;28;20052;-73
2022/08/23 08:23:03;;;;;;;0.43;0.43;;;20.30;99.90;;;;;;5013575;28;20030;-74
2022/08/23 08:25:32;;;;;;;0.65;0.57;;;20.10;99.90;;;;;;5013921;28;20034;-73
2022/08/23 08:27:58;;;;;;;0.60;0.50;;;19.80;99.90;;;;;;5013523;28;20538;-74
2022/08/23 08:30:24;;;;;;;0.60;0.50;;;19.60;99.90;;;;;;5013918;28;20100;-73
2022/08/23 08:32:49;;;;;;;0.50;0.50;;;19.40;99.90;;;;;;5014049;28;20022;-73
2022/08/23 08:35:15;;;;;;;1.67;0.40;;;19.10;99.90;;;;;;5013475;28;20451;-73
2022/08/23 08:37:41;;;;;;;0.50;0.50;;;18.90;99.90;;;;;;5013282;28;20082;-73
2022/08/23 08:40:07;;;;;;;0.68;0.65;;;18.70;99.90;;;;;;5013327;28;20386;-73
2022/08/23 08:42:58;;;;;;;0.45;0.40;;;18.60;99.90;;;;;;5013326;28;20387;-73
2022/08/23 08:45:31;;;;;;;0.70;0.70;;;18.50;99.90;;;;;;5013601;28;20030;-73
2022/08/23 08:48:02;;;;;;;0.60;0.60;;;18.40;99.90;;;;;;5013477;28;20061;-73
2022/08/23 08:50:41;;;;;;;0.80;0.70;;;18.30;99.90;;;;;;5013794;28;20026;-73
2022/08/23 08:53:09;;;;;;;0.57;0.57;;;18.30;99.90;;;;;;5013093;28;20038;-73
2022/08/23 08:55:44;;;;;;;0.95;0.85;;;18.20;99.90;;;;;;5013654;28;20034;-72
2022/08/23 08:58:41;;;;;;;0.50;0.50;;;18.10;99.90;;;;;;5013038;28;20030;-73
2022/08/23 09:01:07;;;;;;;0.50;0.50;;;18.00;99.90;;;;;;5012457;28;20478;-72
2022/08/23 09:03:34;;;;;;;1.17;0.75;;;18.00;99.90;;;;;;5013296;28;20026;-73
2022/08/23 09:06:03;;;;;;;0.77;0.75;;;18.00;99.90;;;;;;5013258;28;20060;-73
2022/08/23 09:08:44;;;;;;;1.10;1.00;;;17.90;99.90;;;;;;5013417;28;20109;-73
2022/08/23 09:11:29;;;;;;;1.20;0.80;;;17.90;99.90;;;;;;5012849;28;20030;-73
2022/08/23 09:14:15;;;;;;;3.72;1.02;;;17.80;99.90;;;;;;5013429;28;20417;-72
2022/08/23 09:16:49;;;;;;;1.02;0.85;;;17.80;99.90;;;;;;5013119;28;20424;-73
2022/08/23 09:19:16;;;;;;;1.33;1.23;;;17.70;99.90;;;;;;5012394;28;20030;-73
2022/08/23 09:21:47;;;;;;;1.13;1.02;;;17.70;99.90;;;;;;5013190;28;20076;-73
2022/08/23 09:24:13;;;;;;;1.20;1.10;;;17.70;99.90;;;;;;5012742;28;20037;-73
2022/08/23 09:26:39;;;;;;;1.08;0.90;;;17.60;99.90;;;;;;5012656;28;20045;-73
2022/08/23 09:29:21;;;;;;;1.90;1.30;;;17.60;99.90;;;;;;5012116;28;20033;-73
2022/08/23 09:31:51;;;;;;;1.00;0.95;;;17.60;99.90;;;;;;5012988;28;20026;-73
2022/08/23 09:34:29;;;;;;;1.38;1.20;;;17.50;99.90;;;;;;5012557;28;20042;-73
2022/08/23 09:37:07;;;;;;;1.75;1.20;;;17.50;99.90;;;;;;5012993;28;20059;-73
2022/08/23 09:39:36;;;;;;;1.75;1.27;;;17.50;99.90;;;;;;5012734;28;20073;-73
2022/08/23 09:42:02;;;;;;;1.10;1.00;;;17.50;99.90;;;;;;5009444;28;20057;-72
2022/08/23 09:44:40;;;;;;;1.30;1.10;;;17.60;99.90;;;;;;5012594;28;20103;-73
2022/08/23 09:47:06;;;;;;;1.50;1.40;;;17.50;99.90;;;;;;5012347;28;20170;-73
2022/08/23 09:49:32;;;;;;;1.65;1.15;;;17.60;99.90;;;;;;5012682;28;20575;-73
2022/08/23 09:52:09;;;;;;;1.65;1.55;;;17.60;99.90;;;;;;5012505;28;20033;-72
2022/08/23 09:54:36;;;;;;;1.33;1.23;;;17.60;99.90;;;;;;5012403;28;20029;-72
2022/08/23 09:57:12;;;;;;;1.42;1.30;;;17.60;99.90;;;;;;5009104;28;20087;-72
2022/08/23 09:59:46;;;;;;;5.70;1.77;;;17.50;99.90;;;;;;5012876;28;20026;-72
2022/08/23 10:02:35;;;;;;;1.52;1.02;;;17.50;99.90;;;;;;5011871;28;20075;-73
2022/08/23 10:05:04;;;;;;;3.00;1.30;;;17.50;99.90;;;;;;4999317;28;20034;-72
2022/08/23 10:07:41;;;;;;;1.50;1.40;;;17.50;99.90;;;;;;5012545;28;20050;-73
2022/08/23 10:10:42;;;;;;;2.50;1.20;;;17.50;99.90;;;;;;5012344;28;20026;-73
2022/08/23 10:13:08;;;;;;;1.37;1.27;;;17.50;99.90;;;;;;5012096;28;20041;-73
2022/08/23 10:16:01;;;;;;;1.83;1.40;;;17.50;99.90;;;;;;5012354;28;20251;-73
2022/08/23 10:18:50;;;;;;;1.17;1.05;;;17.50;99.90;;;;;;5012122;28;20045;-73
2022/08/23 10:21:27;;;;;;;3.75;1.63;;;17.50;99.90;;;;;;5012121;28;20054;-73
2022/08/23 10:24:05;;;;;;;1.83;1.33;;;17.50;99.90;;;;;;5012090;28;20022;-73
2022/08/23 10:26:34;;;;;;;2.25;1.80;;;17.60;99.90;;;;;;5011870;28;20030;-73
2022/08/23 10:32:20;;;;;;;1.33;1.23;;;17.70;99.90;;;;;;5011942;28;20101;-72
2022/08/23 10:34:58;;;;;;;2.22;1.45;;;17.80;99.90;;;;;;5011879;28;20040;-72
2022/08/23 10:37:46;;;;;;;1.92;1.40;;;17.90;99.90;;;;;;5011719;28;20026;-74
2022/08/23 10:40:27;;;;;;;1.83;1.50;;;17.90;99.90;;;;;;5015165;28;20038;-75
2022/08/23 10:42:53;;;;;;;1.80;1.35;;;18.00;99.90;;;;;;5015605;28;20486;-74
2022/08/23 10:45:30;;;;;;;1.55;1.20;;;18.00;99.90;;;;;;5015365;28;20105;-73
2022/08/23 10:48:11;;;;;;;2.67;1.52;;;18.10;99.90;;;;;;5015600;28;20044;-73
2022/08/23 10:50:51;;;;;;;2.42;1.30;;;18.20;99.90;;;;;;5015650;28;20463;-73
2022/08/23 10:53:19;;;;;;;1.50;1.27;;;18.30;99.90;;;;;;4997867;28;20037;-74
2022/08/23 10:56:18;;;;;;;1.58;1.27;;;18.20;99.90;;;;;;5015549;28;20116;-72
2022/08/23 10:58:53;;;;;;;1.27;1.17;;;18.30;99.90;;;;;;5014420;28;20490;-73
2022/08/23 11:01:22;;;;;;;2.78;1.40;;;18.30;99.90;;;;;;5014863;28;20164;-73
2022/08/23 11:04:04;;;;;;;1.33;1.20;;;18.40;99.90;;;;;;4997707;28;20113;-73
2022/08/23 11:06:52;;;;;;;1.25;1.15;;;18.60;99.90;;;;;;5015087;28;20041;-73
2022/08/23 11:09:20;;;;;;;3.15;1.30;;;18.60;99.90;;;;;;4997344;28;20092;-74
2022/08/23 11:12:05;;;;;;;1.30;1.17;;;18.60;99.90;;;;;;5014995;28;20026;-73
2022/08/23 11:14:39;;;;;;;1.40;1.30;;;18.70;99.90;;;;;;5014920;28;20026;-73
2022/08/23 11:17:11;;;;;;;1.40;1.30;;;18.80;99.90;;;;;;5014930;28;20044;-73
2022/08/23 11:19:51;;;;;;;2.45;1.25;;;18.80;99.90;;;;;;5014919;28;20091;-74
2022/08/23 11:22:20;;;;;;;2.25;1.67;;;18.90;99.90;;;;;;5014705;28;20029;-74
2022/08/23 11:25:23;;;;;;;1.25;1.15;;;18.90;99.90;;;;;;5015371;28;20112;-73
2022/08/23 11:27:49;;;;;;;1.63;1.10;;;19.00;99.90;;;;;;4961081;28;20433;-73
2022/08/23 11:30:35;;;;;;;1.75;1.00;;;19.00;99.90;;;;;;5014619;28;20018;-74
2022/08/23 11:33:19;;;;;;;1.33;1.10;;;19.10;99.90;;;;;;5014678;28;20060;-73
2022/08/23 11:35:49;;;;;;;1.85;1.30;;;19.10;99.90;;;;;;5014286;28;20483;-73
2022/08/23 11:38:16;;;;;;;1.83;1.45;;;19.10;99.90;;;;;;5011180;28;20096;-74
2022/08/23 11:40:57;;;;;;;1.15;1.00;;;19.10;99.90;;;;;;5014826;28;20104;-72
2022/08/23 11:43:25;;;;;;;1.77;1.20;;;19.10;99.90;;;;;;5014334;28;20400;-72
2022/08/23 11:45:51;;;;;;;1.73;1.40;;;19.10;99.90;;;;;;5014806;28;20022;-73
2022/08/23 11:48:26;;;;;;;1.27;1.08;;;19.20;99.90;;;;;;5013877;28;20390;-73
2022/08/23 11:51:21;;;;;;;2.78;1.27;;;19.20;99.90;;;;;;5013903;28;20400;-73
2022/08/23 11:53:49;;;;;;;1.88;1.30;;;19.30;99.90;;;;;;4992744;28;20041;-73
2022/08/23 11:56:37;;;;;;;0.88;0.88;;;19.40;99.90;;;;;;5013694;28;20044;-74
2022/08/23 11:59:06;;;;;;;1.38;1.25;;;19.40;99.90;;;;;;5014195;28;20060;-73
2022/08/23 12:01:38;;;;;;;1.65;1.10;;;19.40;99.90;;;;;;5013957;28;20037;-73
2022/08/23 12:04:13;;;;;;;1.23;1.13;;;19.50;99.90;;;;;;5014303;28;20108;-73
2022/08/23 12:06:47;;;;;;;1.25;1.15;;;19.50;99.90;;;;;;5013856;28;20367;-73
2022/08/23 12:09:21;;;;;;;1.38;1.27;;;19.60;99.90;;;;;;5014089;28;20054;-73
2022/08/23 12:11:56;;;;;;;1.60;1.30;;;19.60;99.90;;;;;;5014232;28;20088;-72
2022/08/23 12:14:31;;;;;;;2.20;1.30;;;19.60;99.90;;;;;;5013830;28;20034;-73
2022/08/23 12:17:04;;;;;;;1.63;1.40;;;19.70;99.90;;;;;;5013979;28;20112;-73
2022/08/23 12:19:34;;;;;;;1.25;1.00;;;19.70;99.90;;;;;;5013450;28;20046;-73
2022/08/23 12:22:20;;;;;;;1.20;1.10;;;19.80;99.90;;;;;;5014221;28;20076;-73
2022/08/23 12:24:54;;;;;;;1.58;1.20;;;19.80;99.90;;;;;;5013962;28;20459;-73
2022/08/23 12:27:44;;;;;;;1.30;1.20;;;19.90;99.90;;;;;;5013374;28;20041;-73
2022/08/23 12:30:19;;;;;;;1.30;1.20;;;19.80;99.90;;;;;;5013913;28;20049;-73
2022/08/23 12:33:21;;;;;;;0.98;0.98;;;19.80;99.90;;;;;;5013656;28;20111;-72
2022/08/23 12:35:53;;;;;;;1.10;1.00;;;19.70;99.90;;;;;;5013378;28;20160;-72
2022/08/23 12:38:21;;;;;;;1.55;1.25;;;19.70;99.90;;;;;;5013185;28;20038;-73
2022/08/23 12:40:50;;;;;;;1.20;1.10;;;19.70;99.90;;;;;;5013950;28;20077;-73
2022/08/23 12:43:22;;;;;;;1.77;1.30;;;19.70;99.90;;;;;;5013384;28;20045;-73
2022/08/23 12:45:57;;;;;;;1.15;1.05;;;19.70;99.90;;;;;;5013309;28;20048;-73
2022/08/23 12:48:30;;;;;;;1.30;1.10;;;19.70;99.90;;;;;;5013053;28;20029;-73
2022/08/23 12:50:59;;;;;;;2.08;1.30;;;19.70;99.90;;;;;;5013352;28;20026;-73
2022/08/23 12:53:28;;;;;;;1.10;1.00;;;19.70;99.90;;;;;;5012986;28;20049;-73
2022/08/23 12:56:01;;;;;;;1.27;1.17;;;19.70;99.90;;;;;;5013324;28;20462;-72
2022/08/23 12:58:30;;;;;;;1.27;1.17;;;19.70;99.90;;;;;;5012711;28;20040;-73
2022/08/23 13:00:59;;;;;;;1.27;1.13;;;19.70;99.90;;;;;;5013394;28;20097;-73
2022/08/23 13:03:43;;;;;;;0.90;0.90;;;19.60;99.90;;;;;;5011804;28;20022;-73
2022/08/23 13:06:12;;;;;;;1.08;0.93;;;19.70;99.90;;;;;;5013046;28;20029;-73
2022/08/23 13:08:53;;;;;;;1.05;1.00;;;19.70;99.90;;;;;;5012623;28;20105;-72
2022/08/23 13:11:22;;;;;;;0.90;0.90;;;19.60;99.90;;;;;;5013002;28;20038;-73
2022/08/23 13:13:48;;;;;;;1.10;1.05;;;19.60;99.90;;;;;;5013141;28;20033;-72